Terminal Aerodrome Forecast
Issued by NWS Charleston, WV

Current Version | Previous Version | Text Only | Print | Product List | Glossary Off
Versions: 1 2 3 4 5 6 7 8 9 10 11 12 13 14 15 16 17 18 19 20 21 22

000
FTUS41 KRLX 020500 RRA
TAFPKB
TAF
KPKB 020551Z 0206/0306 28006KT 6SM -RA BR OVC015
     FM020900 30007G14KT 6SM BR OVC020
     FM021800 31004KT P6SM BKN200=

USA.gov is the U.S. government's official web portal to all federal, state and local government web resources and services.